sensor_id;sensor_type;location;lat;lon;timestamp;P1;durP1;ratioP1;P2;durP2;ratioP2
42030;SDS011;27709;52.036;5.906;2024-02-21T00:02:05;24.00;;;12.23;;
42030;SDS011;27709;52.036;5.906;2024-02-21T00:04:30;27.20;;;12.18;;
42030;SDS011;27709;52.036;5.906;2024-02-21T00:06:56;21.95;;;11.13;;
42030;SDS011;27709;52.036;5.906;2024-02-21T00:09:22;22.95;;;11.63;;
42030;SDS011;27709;52.036;5.906;2024-02-21T00:11:47;22.05;;;10.75;;
42030;SDS011;27709;52.036;5.906;2024-02-21T00:14:13;23.95;;;11.50;;
42030;SDS011;27709;52.036;5.906;2024-02-21T00:16:39;19.85;;;11.07;;
42030;SDS011;27709;52.036;5.906;2024-02-21T00:19:04;23.27;;;10.80;;
42030;SDS011;27709;52.036;5.906;2024-02-21T00:21:30;19.77;;;10.43;;
42030;SDS011;27709;52.036;5.906;2024-02-21T00:23:55;19.95;;;11.20;;
42030;SDS011;27709;52.036;5.906;2024-02-21T00:26:21;26.83;;;11.23;;
42030;SDS011;27709;52.036;5.906;2024-02-21T00:28:46;22.05;;;10.27;;
42030;SDS011;27709;52.036;5.906;2024-02-21T00:31:12;28.70;;;12.13;;
42030;SDS011;27709;52.036;5.906;2024-02-21T00:33:38;20.67;;;11.18;;
42030;SDS011;27709;52.036;5.906;2024-02-21T00:36:03;21.30;;;10.07;;
42030;SDS011;27709;52.036;5.906;2024-02-21T00:38:29;20.05;;;10.23;;
42030;SDS011;27709;52.036;5.906;2024-02-21T00:40:55;19.73;;;10.30;;
42030;SDS011;27709;52.036;5.906;2024-02-21T00:43:20;20.45;;;11.27;;
42030;SDS011;27709;52.036;5.906;2024-02-21T00:45:48;22.75;;;10.82;;
42030;SDS011;27709;52.036;5.906;2024-02-21T00:48:15;19.65;;;10.40;;
42030;SDS011;27709;52.036;5.906;2024-02-21T00:50:40;22.33;;;10.40;;
42030;SDS011;27709;52.036;5.906;2024-02-21T00:53:06;20.65;;;10.65;;
42030;SDS011;27709;52.036;5.906;2024-02-21T00:55:31;22.48;;;10.65;;
42030;SDS011;27709;52.036;5.906;2024-02-21T00:57:57;21.73;;;11.05;;
42030;SDS011;27709;52.036;5.906;2024-02-21T01:00:22;24.10;;;10.60;;
42030;SDS011;27709;52.036;5.906;2024-02-21T01:02:48;19.10;;;10.50;;
42030;SDS011;27709;52.036;5.906;2024-02-21T01:05:14;19.33;;;10.00;;
42030;SDS011;27709;52.036;5.906;2024-02-21T01:07:39;23.65;;;11.20;;
42030;SDS011;27709;52.036;5.906;2024-02-21T01:10:05;25.88;;;10.80;;
42030;SDS011;27709;52.036;5.906;2024-02-21T01:12:31;24.45;;;12.05;;
42030;SDS011;27709;52.036;5.906;2024-02-21T01:14:57;21.90;;;10.82;;
42030;SDS011;27709;52.036;5.906;2024-02-21T01:17:22;24.02;;;11.55;;
42030;SDS011;27709;52.036;5.906;2024-02-21T01:19:48;20.27;;;10.70;;
42030;SDS011;27709;52.036;5.906;2024-02-21T01:22:13;17.90;;;9.50;;
42030;SDS011;27709;52.036;5.906;2024-02-21T01:24:40;18.90;;;9.88;;
42030;SDS011;27709;52.036;5.906;2024-02-21T01:27:06;25.15;;;11.18;;
42030;SDS011;27709;52.036;5.906;2024-02-21T01:29:32;20.27;;;11.48;;
42030;SDS011;27709;52.036;5.906;2024-02-21T01:31:57;18.23;;;9.55;;
42030;SDS011;27709;52.036;5.906;2024-02-21T01:34:23;23.05;;;10.68;;
42030;SDS011;27709;52.036;5.906;2024-02-21T01:36:48;21.80;;;10.68;;
42030;SDS011;27709;52.036;5.906;2024-02-21T01:39:14;20.55;;;10.25;;
42030;SDS011;27709;52.036;5.906;2024-02-21T01:41:40;18.52;;;9.98;;
42030;SDS011;27709;52.036;5.906;2024-02-21T01:44:06;18.63;;;9.85;;
42030;SDS011;27709;52.036;5.906;2024-02-21T01:46:32;18.75;;;10.10;;
42030;SDS011;27709;52.036;5.906;2024-02-21T01:48:57;20.23;;;9.55;;
42030;SDS011;27709;52.036;5.906;2024-02-21T01:51:24;20.10;;;10.07;;
42030;SDS011;27709;52.036;5.906;2024-02-21T01:53:50;15.38;;;9.38;;
42030;SDS011;27709;52.036;5.906;2024-02-21T01:56:16;17.48;;;8.85;;
42030;SDS011;27709;52.036;5.906;2024-02-21T01:58:42;14.95;;;8.43;;
42030;SDS011;27709;52.036;5.906;2024-02-21T02:01:09;15.90;;;8.82;;
42030;SDS011;27709;52.036;5.906;2024-02-21T02:03:35;17.00;;;8.73;;
42030;SDS011;27709;52.036;5.906;2024-02-21T02:06:02;16.02;;;8.00;;
42030;SDS011;27709;52.036;5.906;2024-02-21T02:08:29;17.02;;;8.00;;
42030;SDS011;27709;52.036;5.906;2024-02-21T02:10:56;17.00;;;9.23;;
42030;SDS011;27709;52.036;5.906;2024-02-21T02:13:22;18.92;;;10.07;;
42030;SDS011;27709;52.036;5.906;2024-02-21T02:15:48;17.80;;;9.70;;
42030;SDS011;27709;52.036;5.906;2024-02-21T02:18:15;18.02;;;10.07;;
42030;SDS011;27709;52.036;5.906;2024-02-21T02:20:41;21.30;;;10.43;;
42030;SDS011;27709;52.036;5.906;2024-02-21T02:23:18;20.52;;;10.05;;
42030;SDS011;27709;52.036;5.906;2024-02-21T02:25:43;18.77;;;9.68;;
42030;SDS011;27709;52.036;5.906;2024-02-21T02:28:10;19.25;;;9.77;;
42030;SDS011;27709;52.036;5.906;2024-02-21T02:30:36;19.15;;;9.70;;
42030;SDS011;27709;52.036;5.906;2024-02-21T02:33:02;18.45;;;10.10;;
42030;SDS011;27709;52.036;5.906;2024-02-21T02:35:28;16.35;;;8.85;;
42030;SDS011;27709;52.036;5.906;2024-02-21T02:37:54;18.90;;;9.38;;
42030;SDS011;27709;52.036;5.906;2024-02-21T02:40:20;20.67;;;10.40;;
42030;SDS011;27709;52.036;5.906;2024-02-21T02:42:45;16.40;;;9.23;;
42030;SDS011;27709;52.036;5.906;2024-02-21T02:45:12;18.23;;;9.60;;
42030;SDS011;27709;52.036;5.906;2024-02-21T02:47:39;18.80;;;9.68;;
42030;SDS011;27709;52.036;5.906;2024-02-21T02:50:05;23.58;;;10.48;;
42030;SDS011;27709;52.036;5.906;2024-02-21T02:52:31;18.85;;;9.75;;
42030;SDS011;27709;52.036;5.906;2024-02-21T02:54:57;21.65;;;10.00;;
42030;SDS011;27709;52.036;5.906;2024-02-21T02:57:23;18.60;;;9.88;;
42030;SDS011;27709;52.036;5.906;2024-02-21T02:59:49;19.23;;;9.88;;
42030;SDS011;27709;52.036;5.906;2024-02-21T03:02:15;20.90;;;8.90;;
42030;SDS011;27709;52.036;5.906;2024-02-21T03:04:41;19.73;;;9.50;;
42030;SDS011;27709;52.036;5.906;2024-02-21T03:07:07;17.60;;;9.63;;
42030;SDS011;27709;52.036;5.906;2024-02-21T03:09:32;16.92;;;9.55;;
42030;SDS011;27709;52.036;5.906;2024-02-21T03:11:58;15.68;;;8.73;;
42030;SDS011;27709;52.036;5.906;2024-02-21T03:14:28;17.45;;;8.63;;
42030;SDS011;27709;52.036;5.906;2024-02-21T03:16:54;22.73;;;10.02;;
42030;SDS011;27709;52.036;5.906;2024-02-21T03:19:19;19.13;;;9.65;;
42030;SDS011;27709;52.036;5.906;2024-02-21T03:21:45;24.25;;;10.73;;
42030;SDS011;27709;52.036;5.906;2024-02-21T03:24:11;18.60;;;8.50;;
42030;SDS011;27709;52.036;5.906;2024-02-21T03:26:36;23.48;;;9.05;;
42030;SDS011;27709;52.036;5.906;2024-02-21T03:29:02;18.55;;;9.25;;
42030;SDS011;27709;52.036;5.906;2024-02-21T03:31:28;21.90;;;10.23;;
42030;SDS011;27709;52.036;5.906;2024-02-21T03:33:54;24.30;;;10.73;;
42030;SDS011;27709;52.036;5.906;2024-02-21T03:36:20;21.55;;;10.43;;
42030;SDS011;27709;52.036;5.906;2024-02-21T03:38:45;18.20;;;10.20;;
42030;SDS011;27709;52.036;5.906;2024-02-21T03:41:11;20.70;;;9.75;;
42030;SDS011;27709;52.036;5.906;2024-02-21T03:43:37;21.58;;;9.43;;
42030;SDS011;27709;52.036;5.906;2024-02-21T03:46:03;20.88;;;10.13;;
42030;SDS011;27709;52.036;5.906;2024-02-21T03:48:30;23.13;;;10.18;;
42030;SDS011;27709;52.036;5.906;2024-02-21T03:50:55;19.02;;;10.48;;
42030;SDS011;27709;52.036;5.906;2024-02-21T03:53:21;18.92;;;9.75;;
42030;SDS011;27709;52.036;5.906;2024-02-21T03:55:47;20.02;;;9.95;;
42030;SDS011;27709;52.036;5.906;2024-02-21T03:58:12;20.55;;;9.43;;
42030;SDS011;27709;52.036;5.906;2024-02-21T04:00:38;21.27;;;10.20;;
42030;SDS011;27709;52.036;5.906;2024-02-21T04:03:04;19.58;;;10.18;;
42030;SDS011;27709;52.036;5.906;2024-02-21T04:05:31;20.30;;;10.75;;
42030;SDS011;27709;52.036;5.906;2024-02-21T04:07:57;20.45;;;10.25;;
42030;SDS011;27709;52.036;5.906;2024-02-21T04:10:22;18.98;;;9.30;;
42030;SDS011;27709;52.036;5.906;2024-02-21T04:12:48;22.58;;;9.63;;
42030;SDS011;27709;52.036;5.906;2024-02-21T04:15:15;19.98;;;9.48;;
42030;SDS011;27709;52.036;5.906;2024-02-21T04:17:41;16.38;;;8.15;;
42030;SDS011;27709;52.036;5.906;2024-02-21T04:20:13;19.38;;;9.43;;
42030;SDS011;27709;52.036;5.906;2024-02-21T04:22:39;17.20;;;10.10;;
42030;SDS011;27709;52.036;5.906;2024-02-21T04:25:05;18.02;;;8.15;;
42030;SDS011;27709;52.036;5.906;2024-02-21T04:27:31;14.25;;;8.40;;
42030;SDS011;27709;52.036;5.906;2024-02-21T04:29:57;18.52;;;8.43;;
42030;SDS011;27709;52.036;5.906;2024-02-21T04:32:22;19.83;;;8.32;;
42030;SDS011;27709;52.036;5.906;2024-02-21T04:34:50;17.35;;;8.30;;
42030;SDS011;27709;52.036;5.906;2024-02-21T04:37:15;16.42;;;8.18;;
42030;SDS011;27709;52.036;5.906;2024-02-21T04:39:41;15.55;;;7.50;;
42030;SDS011;27709;52.036;5.906;2024-02-21T04:42:06;15.93;;;7.85;;
42030;SDS011;27709;52.036;5.906;2024-02-21T04:44:32;16.30;;;7.65;;
42030;SDS011;27709;52.036;5.906;2024-02-21T04:46:57;18.98;;;8.00;;
42030;SDS011;27709;52.036;5.906;2024-02-21T04:49:23;19.25;;;7.60;;
42030;SDS011;27709;52.036;5.906;2024-02-21T04:51:48;12.88;;;6.82;;
42030;SDS011;27709;52.036;5.906;2024-02-21T04:54:14;14.25;;;6.68;;
42030;SDS011;27709;52.036;5.906;2024-02-21T04:56:39;14.95;;;7.22;;
42030;SDS011;27709;52.036;5.906;2024-02-21T04:59:05;14.00;;;7.28;;
42030;SDS011;27709;52.036;5.906;2024-02-21T05:01:31;11.77;;;6.35;;
42030;SDS011;27709;52.036;5.906;2024-02-21T05:03:57;15.70;;;6.80;;
42030;SDS011;27709;52.036;5.906;2024-02-21T05:06:22;14.07;;;6.72;;
42030;SDS011;27709;52.036;5.906;2024-02-21T05:08:48;16.48;;;6.70;;
42030;SDS011;27709;52.036;5.906;2024-02-21T05:11:14;15.15;;;6.70;;
42030;SDS011;27709;52.036;5.906;2024-02-21T05:13:39;16.30;;;7.45;;
42030;SDS011;27709;52.036;5.906;2024-02-21T05:16:05;15.00;;;6.38;;
42030;SDS011;27709;52.036;5.906;2024-02-21T05:18:32;15.63;;;6.28;;
42030;SDS011;27709;52.036;5.906;2024-02-21T05:20:58;13.75;;;5.88;;
42030;SDS011;27709;52.036;5.906;2024-02-21T05:23:24;13.88;;;6.15;;
42030;SDS011;27709;52.036;5.906;2024-02-21T05:25:49;11.93;;;6.80;;
42030;SDS011;27709;52.036;5.906;2024-02-21T05:28:15;17.17;;;7.60;;
42030;SDS011;27709;52.036;5.906;2024-02-21T05:30:41;12.98;;;6.32;;
42030;SDS011;27709;52.036;5.906;2024-02-21T05:33:08;17.30;;;7.68;;
42030;SDS011;27709;52.036;5.906;2024-02-21T05:35:34;14.88;;;6.72;;
42030;SDS011;27709;52.036;5.906;2024-02-21T05:38:00;16.42;;;7.47;;
42030;SDS011;27709;52.036;5.906;2024-02-21T05:40:29;17.48;;;8.05;;
42030;SDS011;27709;52.036;5.906;2024-02-21T05:42:54;16.02;;;8.18;;
42030;SDS011;27709;52.036;5.906;2024-02-21T05:45:20;13.30;;;8.32;;
42030;SDS011;27709;52.036;5.906;2024-02-21T05:47:46;18.20;;;8.75;;
42030;SDS011;27709;52.036;5.906;2024-02-21T05:50:11;19.25;;;9.15;;
42030;SDS011;27709;52.036;5.906;2024-02-21T05:52:37;17.67;;;9.90;;
42030;SDS011;27709;52.036;5.906;2024-02-21T05:55:02;19.08;;;8.73;;
42030;SDS011;27709;52.036;5.906;2024-02-21T05:57:28;16.38;;;8.18;;
42030;SDS011;27709;52.036;5.906;2024-02-21T05:59:54;17.20;;;9.70;;
42030;SDS011;27709;52.036;5.906;2024-02-21T06:02:19;18.52;;;8.98;;
42030;SDS011;27709;52.036;5.906;2024-02-21T06:04:45;18.35;;;9.32;;
42030;SDS011;27709;52.036;5.906;2024-02-21T06:07:11;16.25;;;8.93;;
42030;SDS011;27709;52.036;5.906;2024-02-21T06:09:37;24.58;;;11.57;;
42030;SDS011;27709;52.036;5.906;2024-02-21T06:12:02;20.33;;;10.50;;
42030;SDS011;27709;52.036;5.906;2024-02-21T06:14:28;18.73;;;9.70;;
42030;SDS011;27709;52.036;5.906;2024-02-21T06:16:53;18.75;;;10.77;;
42030;SDS011;27709;52.036;5.906;2024-02-21T06:19:19;19.15;;;10.18;;
42030;SDS011;27709;52.036;5.906;2024-02-21T06:21:45;22.45;;;10.25;;
42030;SDS011;27709;52.036;5.906;2024-02-21T06:24:10;17.90;;;9.75;;
42030;SDS011;27709;52.036;5.906;2024-02-21T06:26:37;21.70;;;10.10;;
42030;SDS011;27709;52.036;5.906;2024-02-21T06:29:05;18.75;;;10.38;;
42030;SDS011;27709;52.036;5.906;2024-02-21T06:31:31;20.27;;;11.18;;
42030;SDS011;27709;52.036;5.906;2024-02-21T06:33:56;19.30;;;10.52;;
42030;SDS011;27709;52.036;5.906;2024-02-21T06:36:22;17.60;;;9.75;;
42030;SDS011;27709;52.036;5.906;2024-02-21T06:38:48;20.77;;;9.50;;
42030;SDS011;27709;52.036;5.906;2024-02-21T06:41:19;21.92;;;9.55;;
42030;SDS011;27709;52.036;5.906;2024-02-21T06:43:46;20.70;;;9.77;;
42030;SDS011;27709;52.036;5.906;2024-02-21T06:46:12;18.25;;;8.50;;
42030;SDS011;27709;52.036;5.906;2024-02-21T06:48:47;15.98;;;8.85;;
42030;SDS011;27709;52.036;5.906;2024-02-21T06:51:12;18.05;;;8.60;;
42030;SDS011;27709;52.036;5.906;2024-02-21T06:53:38;19.42;;;8.73;;
42030;SDS011;27709;52.036;5.906;2024-02-21T06:56:03;17.80;;;8.70;;
42030;SDS011;27709;52.036;5.906;2024-02-21T06:58:29;21.65;;;8.65;;
42030;SDS011;27709;52.036;5.906;2024-02-21T07:00:55;15.77;;;8.30;;
42030;SDS011;27709;52.036;5.906;2024-02-21T07:03:20;18.48;;;8.30;;
42030;SDS011;27709;52.036;5.906;2024-02-21T07:05:46;21.45;;;9.57;;
42030;SDS011;27709;52.036;5.906;2024-02-21T07:08:11;17.15;;;8.00;;
42030;SDS011;27709;52.036;5.906;2024-02-21T07:10:37;20.80;;;8.85;;
42030;SDS011;27709;52.036;5.906;2024-02-21T07:13:02;17.60;;;8.30;;
42030;SDS011;27709;52.036;5.906;2024-02-21T07:15:28;17.30;;;7.95;;
42030;SDS011;27709;52.036;5.906;2024-02-21T07:17:55;18.30;;;8.35;;
42030;SDS011;27709;52.036;5.906;2024-02-21T07:20:21;14.95;;;7.68;;
42030;SDS011;27709;52.036;5.906;2024-02-21T07:22:47;19.80;;;7.82;;
42030;SDS011;27709;52.036;5.906;2024-02-21T07:25:12;18.02;;;8.52;;
42030;SDS011;27709;52.036;5.906;2024-02-21T07:27:38;20.20;;;8.50;;
42030;SDS011;27709;52.036;5.906;2024-02-21T07:30:05;15.75;;;7.80;;
42030;SDS011;27709;52.036;5.906;2024-02-21T07:32:31;17.50;;;7.93;;
42030;SDS011;27709;52.036;5.906;2024-02-21T07:34:56;14.20;;;7.57;;
42030;SDS011;27709;52.036;5.906;2024-02-21T07:37:22;16.48;;;6.88;;
42030;SDS011;27709;52.036;5.906;2024-02-21T07:39:47;14.82;;;7.60;;
42030;SDS011;27709;52.036;5.906;2024-02-21T07:42:13;18.40;;;8.20;;
42030;SDS011;27709;52.036;5.906;2024-02-21T07:44:38;15.77;;;7.07;;
42030;SDS011;27709;52.036;5.906;2024-02-21T07:47:04;16.50;;;7.45;;
42030;SDS011;27709;52.036;5.906;2024-02-21T07:49:31;19.88;;;8.98;;
42030;SDS011;27709;52.036;5.906;2024-02-21T07:51:57;17.42;;;8.02;;
42030;SDS011;27709;52.036;5.906;2024-02-21T07:54:25;20.80;;;8.60;;
42030;SDS011;27709;52.036;5.906;2024-02-21T07:56:50;18.00;;;7.38;;
42030;SDS011;27709;52.036;5.906;2024-02-21T07:59:16;15.43;;;7.05;;
42030;SDS011;27709;52.036;5.906;2024-02-21T08:01:42;17.25;;;7.38;;
42030;SDS011;27709;52.036;5.906;2024-02-21T08:04:09;16.83;;;7.82;;
42030;SDS011;27709;52.036;5.906;2024-02-21T08:06:35;19.58;;;8.65;;
42030;SDS011;27709;52.036;5.906;2024-02-21T08:09:00;17.20;;;7.13;;
42030;SDS011;27709;52.036;5.906;2024-02-21T08:11:26;17.77;;;8.02;;
42030;SDS011;27709;52.036;5.906;2024-02-21T08:13:52;15.90;;;7.40;;
42030;SDS011;27709;52.036;5.906;2024-02-21T08:16:17;14.90;;;7.22;;
42030;SDS011;27709;52.036;5.906;2024-02-21T08:18:46;17.15;;;7.40;;
42030;SDS011;27709;52.036;5.906;2024-02-21T08:21:11;16.00;;;8.15;;
42030;SDS011;27709;52.036;5.906;2024-02-21T08:23:37;14.63;;;6.82;;
42030;SDS011;27709;52.036;5.906;2024-02-21T08:26:03;13.73;;;6.88;;
42030;SDS011;27709;52.036;5.906;2024-02-21T08:28:29;14.27;;;7.20;;
42030;SDS011;27709;52.036;5.906;2024-02-21T08:30:56;17.65;;;7.78;;
42030;SDS011;27709;52.036;5.906;2024-02-21T08:33:21;17.00;;;7.60;;
42030;SDS011;27709;52.036;5.906;2024-02-21T08:35:50;16.75;;;6.95;;
42030;SDS011;27709;52.036;5.906;2024-02-21T08:38:16;16.13;;;8.00;;
42030;SDS011;27709;52.036;5.906;2024-02-21T08:40:42;13.82;;;6.85;;
42030;SDS011;27709;52.036;5.906;2024-02-21T08:43:07;14.75;;;6.38;;
42030;SDS011;27709;52.036;5.906;2024-02-21T08:45:34;19.40;;;8.48;;
42030;SDS011;27709;52.036;5.906;2024-02-21T08:48:00;12.98;;;7.22;;
42030;SDS011;27709;52.036;5.906;2024-02-21T09:03:08;13.60;;;7.05;;
42030;SDS011;27709;52.036;5.906;2024-02-21T09:05:34;14.73;;;7.80;;
42030;SDS011;27709;52.036;5.906;2024-02-21T09:08:00;15.85;;;7.65;;
42030;SDS011;27709;52.036;5.906;2024-02-21T09:10:25;14.75;;;7.45;;
42030;SDS011;27709;52.036;5.906;2024-02-21T09:12:51;15.73;;;7.50;;
42030;SDS011;27709;52.036;5.906;2024-02-21T09:15:16;16.63;;;8.30;;
42030;SDS011;27709;52.036;5.906;2024-02-21T09:17:42;16.13;;;7.90;;
42030;SDS011;27709;52.036;5.906;2024-02-21T09:20:09;15.35;;;8.25;;
42030;SDS011;27709;52.036;5.906;2024-02-21T09:22:38;12.77;;;7.63;;
42030;SDS011;27709;52.036;5.906;2024-02-21T09:25:04;16.08;;;7.60;;
42030;SDS011;27709;52.036;5.906;2024-02-21T09:27:31;11.93;;;6.97;;
42030;SDS011;27709;52.036;5.906;2024-02-21T09:29:56;14.40;;;7.18;;
42030;SDS011;27709;52.036;5.906;2024-02-21T09:32:22;15.43;;;7.68;;
42030;SDS011;27709;52.036;5.906;2024-02-21T09:34:47;13.85;;;7.38;;
42030;SDS011;27709;52.036;5.906;2024-02-21T09:37:13;11.50;;;6.63;;
42030;SDS011;27709;52.036;5.906;2024-02-21T09:39:39;14.50;;;7.00;;
42030;SDS011;27709;52.036;5.906;2024-02-21T09:42:07;12.52;;;7.18;;
42030;SDS011;27709;52.036;5.906;2024-02-21T09:44:37;13.30;;;6.55;;
42030;SDS011;27709;52.036;5.906;2024-02-21T09:49:49;14.50;;;7.53;;
42030;SDS011;27709;52.036;5.906;2024-02-21T09:52:16;14.95;;;6.40;;
42030;SDS011;27709;52.036;5.906;2024-02-21T09:54:44;11.98;;;6.55;;
42030;SDS011;27709;52.036;5.906;2024-02-21T09:57:10;13.73;;;6.95;;
42030;SDS011;27709;52.036;5.906;2024-02-21T09:59:39;12.27;;;5.55;;
42030;SDS011;27709;52.036;5.906;2024-02-21T10:02:06;11.45;;;6.00;;
42030;SDS011;27709;52.036;5.906;2024-02-21T10:04:32;13.30;;;5.57;;
42030;SDS011;27709;52.036;5.906;2024-02-21T10:06:58;13.38;;;6.10;;
42030;SDS011;27709;52.036;5.906;2024-02-21T10:09:24;9.93;;;5.47;;
42030;SDS011;27709;52.036;5.906;2024-02-21T10:11:54;10.27;;;5.63;;
42030;SDS011;27709;52.036;5.906;2024-02-21T10:14:20;9.68;;;5.65;;
42030;SDS011;27709;52.036;5.906;2024-02-21T10:16:57;10.35;;;6.18;;
42030;SDS011;27709;52.036;5.906;2024-02-21T10:19:27;10.40;;;4.95;;
42030;SDS011;27709;52.036;5.906;2024-02-21T10:22:07;11.23;;;5.80;;
42030;SDS011;27709;52.036;5.906;2024-02-21T10:24:34;11.95;;;5.70;;
42030;SDS011;27709;52.036;5.906;2024-02-21T10:27:01;9.40;;;5.68;;
42030;SDS011;27709;52.036;5.906;2024-02-21T10:29:28;8.65;;;4.50;;
42030;SDS011;27709;52.036;5.906;2024-02-21T10:32:07;11.25;;;5.70;;
42030;SDS011;27709;52.036;5.906;2024-02-21T10:34:34;11.38;;;5.40;;
42030;SDS011;27709;52.036;5.906;2024-02-21T10:37:04;10.45;;;5.50;;
42030;SDS011;27709;52.036;5.906;2024-02-21T10:39:31;7.82;;;5.03;;
42030;SDS011;27709;52.036;5.906;2024-02-21T10:41:58;7.07;;;4.65;;
42030;SDS011;27709;52.036;5.906;2024-02-21T10:44:29;7.85;;;4.80;;
42030;SDS011;27709;52.036;5.906;2024-02-21T10:46:57;7.80;;;4.65;;
42030;SDS011;27709;52.036;5.906;2024-02-21T10:49:23;8.80;;;4.47;;
42030;SDS011;27709;52.036;5.906;2024-02-21T10:51:50;8.13;;;4.65;;
42030;SDS011;27709;52.036;5.906;2024-02-21T10:57:02;7.50;;;3.90;;
42030;SDS011;27709;52.036;5.906;2024-02-21T10:59:29;8.45;;;4.45;;
42030;SDS011;27709;52.036;5.906;2024-02-21T11:01:57;8.93;;;4.55;;
42030;SDS011;27709;52.036;5.906;2024-02-21T11:04:22;7.70;;;4.15;;
42030;SDS011;27709;52.036;5.906;2024-02-21T11:06:49;9.13;;;4.30;;
42030;SDS011;27709;52.036;5.906;2024-02-21T11:09:15;7.13;;;4.15;;
42030;SDS011;27709;52.036;5.906;2024-02-21T11:11:42;8.88;;;4.82;;
42030;SDS011;27709;52.036;5.906;2024-02-21T11:14:18;8.13;;;5.28;;
42030;SDS011;27709;52.036;5.906;2024-02-21T11:16:47;9.10;;;5.35;;
42030;SDS011;27709;52.036;5.906;2024-02-21T11:19:19;8.23;;;5.38;;
42030;SDS011;27709;52.036;5.906;2024-02-21T11:21:46;10.43;;;5.80;;
42030;SDS011;27709;52.036;5.906;2024-02-21T11:24:28;8.05;;;5.07;;
42030;SDS011;27709;52.036;5.906;2024-02-21T11:26:55;9.52;;;5.57;;
42030;SDS011;27709;52.036;5.906;2024-02-21T11:29:24;10.00;;;6.03;;
42030;SDS011;27709;52.036;5.906;2024-02-21T11:31:50;9.88;;;5.65;;
42030;SDS011;27709;52.036;5.906;2024-02-21T11:34:17;9.27;;;5.38;;
42030;SDS011;27709;52.036;5.906;2024-02-21T11:36:53;11.65;;;6.15;;
42030;SDS011;27709;52.036;5.906;2024-02-21T11:39:19;11.45;;;6.22;;
42030;SDS011;27709;52.036;5.906;2024-02-21T11:41:47;10.68;;;6.35;;
42030;SDS011;27709;52.036;5.906;2024-02-21T11:44:23;11.10;;;5.90;;
42030;SDS011;27709;52.036;5.906;2024-02-21T11:46:49;11.52;;;6.35;;
42030;SDS011;27709;52.036;5.906;2024-02-21T11:49:14;10.98;;;6.03;;
42030;SDS011;27709;52.036;5.906;2024-02-21T11:51:40;10.45;;;5.60;;
42030;SDS011;27709;52.036;5.906;2024-02-21T11:54:06;13.23;;;6.30;;
42030;SDS011;27709;52.036;5.906;2024-02-21T11:56:31;10.57;;;5.95;;
42030;SDS011;27709;52.036;5.906;2024-02-21T11:58:58;10.55;;;5.75;;
42030;SDS011;27709;52.036;5.906;2024-02-21T12:01:24;9.82;;;5.20;;
42030;SDS011;27709;52.036;5.906;2024-02-21T12:03:49;9.65;;;5.13;;
42030;SDS011;27709;52.036;5.906;2024-02-21T12:06:18;9.93;;;5.63;;
42030;SDS011;27709;52.036;5.906;2024-02-21T12:08:46;11.60;;;5.70;;
42030;SDS011;27709;52.036;5.906;2024-02-21T12:11:21;11.27;;;5.00;;
42030;SDS011;27709;52.036;5.906;2024-02-21T12:13:58;11.60;;;4.82;;
42030;SDS011;27709;52.036;5.906;2024-02-21T12:16:28;9.93;;;5.32;;
42030;SDS011;27709;52.036;5.906;2024-02-21T12:18:58;11.80;;;5.32;;
42030;SDS011;27709;52.036;5.906;2024-02-21T12:21:32;11.35;;;5.45;;
42030;SDS011;27709;52.036;5.906;2024-02-21T12:24:23;10.45;;;5.22;;
42030;SDS011;27709;52.036;5.906;2024-02-21T12:26:51;11.30;;;5.78;;
42030;SDS011;27709;52.036;5.906;2024-02-21T12:29:21;8.82;;;5.10;;
42030;SDS011;27709;52.036;5.906;2024-02-21T12:31:49;8.15;;;4.60;;
42030;SDS011;27709;52.036;5.906;2024-02-21T12:34:15;9.52;;;4.95;;
42030;SDS011;27709;52.036;5.906;2024-02-21T12:36:43;9.05;;;4.70;;
42030;SDS011;27709;52.036;5.906;2024-02-21T12:39:10;8.55;;;4.20;;
42030;SDS011;27709;52.036;5.906;2024-02-21T12:41:36;7.82;;;3.88;;
42030;SDS011;27709;52.036;5.906;2024-02-21T12:44:11;8.65;;;4.35;;
42030;SDS011;27709;52.036;5.906;2024-02-21T12:46:37;9.57;;;4.70;;
42030;SDS011;27709;52.036;5.906;2024-02-21T12:49:04;8.43;;;4.47;;
42030;SDS011;27709;52.036;5.906;2024-02-21T12:51:30;7.32;;;4.20;;
42030;SDS011;27709;52.036;5.906;2024-02-21T12:53:56;7.53;;;4.07;;
42030;SDS011;27709;52.036;5.906;2024-02-21T12:56:22;7.97;;;3.88;;
42030;SDS011;27709;52.036;5.906;2024-02-21T12:58:49;9.98;;;4.68;;
42030;SDS011;27709;52.036;5.906;2024-02-21T13:01:15;9.07;;;4.22;;
42030;SDS011;27709;52.036;5.906;2024-02-21T13:03:41;10.32;;;4.55;;
42030;SDS011;27709;52.036;5.906;2024-02-21T13:06:07;9.95;;;4.47;;
42030;SDS011;27709;52.036;5.906;2024-02-21T13:08:38;7.93;;;3.85;;
42030;SDS011;27709;52.036;5.906;2024-02-21T13:11:05;9.20;;;4.43;;
42030;SDS011;27709;52.036;5.906;2024-02-21T13:13:31;8.75;;;4.13;;
42030;SDS011;27709;52.036;5.906;2024-02-21T13:15:57;6.75;;;4.40;;
42030;SDS011;27709;52.036;5.906;2024-02-21T13:18:23;8.63;;;4.10;;
42030;SDS011;27709;52.036;5.906;2024-02-21T13:20:49;10.65;;;4.35;;
42030;SDS011;27709;52.036;5.906;2024-02-21T13:23:14;8.57;;;4.28;;
42030;SDS011;27709;52.036;5.906;2024-02-21T13:25:48;9.40;;;4.30;;
42030;SDS011;27709;52.036;5.906;2024-02-21T13:28:16;8.23;;;4.00;;
42030;SDS011;27709;52.036;5.906;2024-02-21T13:30:42;6.82;;;3.67;;
42030;SDS011;27709;52.036;5.906;2024-02-21T13:33:08;7.10;;;3.38;;
42030;SDS011;27709;52.036;5.906;2024-02-21T13:35:34;10.00;;;3.95;;
42030;SDS011;27709;52.036;5.906;2024-02-21T13:38:03;9.18;;;3.65;;
42030;SDS011;27709;52.036;5.906;2024-02-21T13:40:29;8.23;;;3.65;;
42030;SDS011;27709;52.036;5.906;2024-02-21T13:42:55;7.65;;;3.42;;
42030;SDS011;27709;52.036;5.906;2024-02-21T13:45:21;7.32;;;3.40;;
42030;SDS011;27709;52.036;5.906;2024-02-21T13:47:46;11.27;;;4.53;;
42030;SDS011;27709;52.036;5.906;2024-02-21T13:50:13;9.50;;;4.30;;
42030;SDS011;27709;52.036;5.906;2024-02-21T13:52:39;9.25;;;4.40;;
42030;SDS011;27709;52.036;5.906;2024-02-21T13:55:08;7.85;;;3.40;;
42030;SDS011;27709;52.036;5.906;2024-02-21T13:57:37;8.90;;;3.50;;
42030;SDS011;27709;52.036;5.906;2024-02-21T14:00:03;9.18;;;3.80;;
42030;SDS011;27709;52.036;5.906;2024-02-21T14:02:29;12.57;;;4.80;;
42030;SDS011;27709;52.036;5.906;2024-02-21T14:04:58;9.63;;;3.95;;
42030;SDS011;27709;52.036;5.906;2024-02-21T14:07:24;9.07;;;3.88;;
42030;SDS011;27709;52.036;5.906;2024-02-21T14:09:50;8.73;;;4.03;;
42030;SDS011;27709;52.036;5.906;2024-02-21T14:12:15;7.75;;;4.03;;
42030;SDS011;27709;52.036;5.906;2024-02-21T14:14:48;9.52;;;4.20;;
42030;SDS011;27709;52.036;5.906;2024-02-21T14:17:23;9.68;;;3.80;;
42030;SDS011;27709;52.036;5.906;2024-02-21T14:19:52;9.40;;;3.80;;
42030;SDS011;27709;52.036;5.906;2024-02-21T14:22:22;9.10;;;3.88;;
42030;SDS011;27709;52.036;5.906;2024-02-21T14:24:48;8.70;;;4.30;;
42030;SDS011;27709;52.036;5.906;2024-02-21T14:27:13;7.55;;;3.60;;
42030;SDS011;27709;52.036;5.906;2024-02-21T14:29:39;7.50;;;3.15;;
42030;SDS011;27709;52.036;5.906;2024-02-21T14:32:04;6.25;;;3.10;;
42030;SDS011;27709;52.036;5.906;2024-02-21T14:34:32;8.35;;;3.35;;
42030;SDS011;27709;52.036;5.906;2024-02-21T14:36:58;7.20;;;2.70;;
42030;SDS011;27709;52.036;5.906;2024-02-21T14:39:25;6.97;;;2.85;;
42030;SDS011;27709;52.036;5.906;2024-02-21T14:41:54;9.07;;;3.00;;
42030;SDS011;27709;52.036;5.906;2024-02-21T14:44:22;7.60;;;2.95;;
42030;SDS011;27709;52.036;5.906;2024-02-21T14:46:53;6.40;;;2.97;;
42030;SDS011;27709;52.036;5.906;2024-02-21T14:49:19;6.30;;;2.53;;
42030;SDS011;27709;52.036;5.906;2024-02-21T14:51:44;7.35;;;2.80;;